Time;durP1;ratioP1;P1;durP2;ratioP2;P2;SDS_P1;SDS_P2;PMS_P1;PMS_P2;Temp;Humidity;BMP_temperature;BMP_pressure;BME280_temperature;BME280_humidity;BME280_pressure;Samples;Min_cycle;Max_cycle;Signal;HPM_P1;HPM_P2
2020/12/17 00:00:49;;;;;;;12.65;10.38;;;9.30;94.90;;;;;;4990715;28;20117;-88
2020/12/17 00:03:14;;;;;;;13.60;9.95;;;9.20;94.80;;;;;;4979900;28;20049;-87
2020/12/17 00:05:40;;;;;;;15.23;9.20;;;9.20;94.80;;;;;;4984893;28;20023;-87
2020/12/17 00:08:05;;;;;;;13.45;10.70;;;9.20;94.80;;;;;;4983690;28;20037;-86
2020/12/17 00:10:31;;;;;;;12.18;9.30;;;9.20;94.80;;;;;;4981846;28;20027;-87
2020/12/17 00:12:56;;;;;;;14.98;9.63;;;9.20;95.00;;;;;;4991684;28;20031;-88
2020/12/17 00:15:22;;;;;;;16.02;10.73;;;9.20;94.80;;;;;;4992457;28;20383;-87
2020/12/17 00:17:49;;;;;;;13.20;10.52;;;9.20;94.80;;;;;;4988201;28;20086;-88
2020/12/17 00:20:17;;;;;;;13.70;10.35;;;9.20;94.80;;;;;;4992858;28;20491;-87
2020/12/17 00:22:42;;;;;;;13.52;9.73;;;9.20;94.80;;;;;;4990664;28;20089;-88
2020/12/17 00:25:09;;;;;;;13.38;10.07;;;9.20;94.80;;;;;;4991311;28;20395;-88
2020/12/17 00:27:39;;;;;;;14.35;9.88;;;9.20;94.80;;;;;;4992547;28;20120;-87
2020/12/17 00:30:06;;;;;;;11.38;9.18;;;9.20;94.80;;;;;;4991940;28;20386;-88
2020/12/17 00:32:32;;;;;;;12.43;9.18;;;9.20;94.80;;;;;;4983710;28;20108;-88
2020/12/17 00:34:57;;;;;;;12.50;9.23;;;9.20;94.80;;;;;;4977078;28;20030;-87
2020/12/17 00:37:28;;;;;;;12.35;9.65;;;9.20;94.80;;;;;;4980645;28;20543;-87
2020/12/17 00:39:53;;;;;;;13.93;9.27;;;9.30;94.80;;;;;;4994216;28;20030;-87
2020/12/17 00:42:19;;;;;;;14.10;9.73;;;9.20;94.80;;;;;;4992679;28;20464;-87
2020/12/17 00:44:44;;;;;;;14.35;9.65;;;9.20;94.80;;;;;;4978109;28;20462;-88
2020/12/17 00:47:10;;;;;;;10.20;8.07;;;9.30;94.80;;;;;;4976176;28;20049;-88
2020/12/17 00:49:35;;;;;;;12.52;9.00;;;9.20;94.80;;;;;;4991694;28;20372;-87
2020/12/17 00:52:02;;;;;;;11.38;8.48;;;9.30;94.80;;;;;;4986147;28;20483;-87
2020/12/17 00:54:29;;;;;;;13.15;8.52;;;9.30;94.80;;;;;;4996000;28;20113;-88
2020/12/17 00:56:54;;;;;;;10.95;8.32;;;9.30;94.70;;;;;;4995071;28;20022;-88
2020/12/17 00:59:21;;;;;;;12.13;9.18;;;9.30;94.70;;;;;;4989036;28;20023;-88
2020/12/17 01:01:47;;;;;;;12.02;8.80;;;9.30;94.70;;;;;;4993757;28;20032;-88
2020/12/17 01:04:12;;;;;;;11.05;8.23;;;9.30;94.60;;;;;;4996149;28;20018;-88
2020/12/17 01:06:38;;;;;;;10.43;8.05;;;9.30;94.60;;;;;;4991257;28;20134;-89
2020/12/17 01:09:03;;;;;;;10.75;8.38;;;9.30;94.60;;;;;;4976645;28;20023;-88
2020/12/17 01:11:31;;;;;;;14.00;8.60;;;9.30;94.60;;;;;;4977475;28;20495;-88
2020/12/17 01:13:57;;;;;;;9.35;7.38;;;9.30;94.60;;;;;;4995390;28;20038;-88
2020/12/17 01:16:23;;;;;;;10.90;8.05;;;9.30;94.60;;;;;;4992173;28;20083;-88
2020/12/17 01:18:49;;;;;;;9.43;7.75;;;9.40;94.60;;;;;;4992085;28;20356;-87
2020/12/17 01:21:15;;;;;;;11.10;8.40;;;9.40;94.50;;;;;;4979961;28;20031;-88
2020/12/17 01:23:41;;;;;;;12.18;8.43;;;9.40;94.50;;;;;;4990817;28;20041;-88
2020/12/17 01:26:11;;;;;;;10.38;8.13;;;9.40;94.50;;;;;;4982040;28;20126;-88
2020/12/17 01:28:39;;;;;;;11.90;7.88;;;9.40;94.50;;;;;;4977484;28;20039;-88
2020/12/17 01:31:10;;;;;;;9.88;7.90;;;9.40;94.40;;;;;;4994581;28;20521;-88
2020/12/17 01:33:36;;;;;;;11.02;7.72;;;9.40;94.40;;;;;;4989081;28;20042;-88
2020/12/17 01:36:03;;;;;;;9.82;8.00;;;9.40;94.30;;;;;;4977784;28;20047;-86
2020/12/17 01:38:28;;;;;;;9.05;6.72;;;9.40;94.30;;;;;;4975328;28;20073;-88
2020/12/17 01:40:54;;;;;;;10.98;7.13;;;9.40;94.30;;;;;;4980496;28;20068;-88
2020/12/17 01:43:19;;;;;;;11.00;8.30;;;9.40;94.30;;;;;;4983204;28;20055;-89
2020/12/17 01:45:45;;;;;;;11.48;8.07;;;9.40;94.20;;;;;;4987006;28;20030;-88
2020/12/17 01:48:15;;;;;;;9.65;7.50;;;9.40;94.20;;;;;;4995250;28;20027;-88
2020/12/17 01:50:41;;;;;;;14.95;8.40;;;9.50;94.20;;;;;;4995412;28;20018;-88
2020/12/17 01:53:07;;;;;;;10.20;7.15;;;9.40;94.30;;;;;;4993911;28;20509;-86
2020/12/17 01:55:32;;;;;;;9.85;7.90;;;9.40;94.10;;;;;;4984946;28;20039;-88
2020/12/17 01:58:02;;;;;;;10.13;8.32;;;9.40;94.10;;;;;;4988169;28;20034;-88
2020/12/17 02:00:34;;;;;;;10.75;8.07;;;9.40;94.10;;;;;;4986399;28;20451;-88
2020/12/17 02:03:01;;;;;;;10.70;7.57;;;9.40;94.10;;;;;;4975717;28;20046;-86
2020/12/17 02:05:27;;;;;;;14.13;8.18;;;9.40;94.20;;;;;;4984117;28;20033;-86
2020/12/17 02:07:54;;;;;;;11.43;8.30;;;9.40;94.20;;;;;;4993494;28;20066;-86
2020/12/17 02:10:19;;;;;;;12.35;8.48;;;9.30;94.20;;;;;;4994549;28;20033;-88
2020/12/17 02:12:47;;;;;;;12.40;8.32;;;9.30;94.30;;;;;;4993997;28;20113;-88
2020/12/17 02:15:15;;;;;;;13.10;7.57;;;9.30;94.30;;;;;;5003593;28;20033;-88
2020/12/17 02:17:41;;;;;;;12.15;8.38;;;9.30;94.30;;;;;;5007012;28;20056;-87
2020/12/17 02:20:08;;;;;;;10.75;8.55;;;9.30;94.30;;;;;;5011240;28;20026;-89
2020/12/17 02:22:34;;;;;;;13.05;8.48;;;9.30;94.40;;;;;;4993587;28;20038;-89
2020/12/17 02:25:01;;;;;;;12.85;8.52;;;9.30;94.40;;;;;;4988084;28;20535;-88
2020/12/17 02:27:27;;;;;;;11.15;7.68;;;9.30;94.40;;;;;;4975020;28;20035;-89
2020/12/17 02:29:52;;;;;;;11.10;8.18;;;9.30;94.40;;;;;;4975031;28;20438;-89
2020/12/17 02:32:18;;;;;;;13.52;8.38;;;9.30;94.50;;;;;;4980164;28;20026;-86
2020/12/17 02:34:44;;;;;;;13.20;8.02;;;9.30;94.50;;;;;;4981838;28;20023;-87
2020/12/17 02:37:10;;;;;;;12.15;9.15;;;9.30;94.50;;;;;;4993825;28;20112;-87
2020/12/17 02:39:35;;;;;;;12.23;8.55;;;9.30;94.50;;;;;;4995178;28;20030;-87
2020/12/17 02:42:03;;;;;;;12.20;8.23;;;9.30;94.40;;;;;;4994488;28;20043;-87
2020/12/17 02:44:28;;;;;;;14.98;7.75;;;9.30;94.80;;;;;;4994974;28;20042;-87
2020/12/17 02:46:54;;;;;;;12.15;8.75;;;9.30;94.50;;;;;;4993219;28;20026;-87
2020/12/17 02:49:20;;;;;;;11.60;7.93;;;9.30;94.50;;;;;;4994479;28;20112;-87
2020/12/17 02:51:45;;;;;;;10.73;7.35;;;9.30;94.50;;;;;;4979407;28;20026;-88
2020/12/17 02:54:11;;;;;;;9.07;7.35;;;9.30;94.50;;;;;;4978068;28;20082;-87
2020/12/17 02:56:37;;;;;;;9.80;7.90;;;9.30;94.50;;;;;;4981449;28;20031;-87
2020/12/17 02:59:03;;;;;;;11.63;7.40;;;9.30;94.50;;;;;;4976432;28;20487;-88
2020/12/17 03:01:29;;;;;;;10.63;7.38;;;9.40;94.60;;;;;;4991681;28;20026;-87
2020/12/17 03:03:54;;;;;;;10.95;7.57;;;9.40;94.50;;;;;;4988843;28;20084;-87
2020/12/17 03:06:20;;;;;;;10.20;6.65;;;9.40;94.50;;;;;;4992123;28;20144;-87
2020/12/17 03:08:46;;;;;;;10.50;7.70;;;9.40;94.50;;;;;;4990767;28;20065;-87
2020/12/17 03:11:12;;;;;;;11.88;7.20;;;9.50;94.50;;;;;;4992863;28;20027;-88
2020/12/17 03:13:37;;;;;;;12.55;6.95;;;9.40;94.50;;;;;;4993395;28;20125;-87
2020/12/17 03:16:03;;;;;;;9.57;7.32;;;9.50;94.50;;;;;;4984062;28;20034;-87
2020/12/17 03:18:29;;;;;;;10.70;6.60;;;9.50;94.40;;;;;;4987492;28;20085;-87
2020/12/17 03:20:54;;;;;;;10.60;6.35;;;9.50;94.40;;;;;;4993044;28;20368;-87
2020/12/17 03:23:21;;;;;;;9.45;7.20;;;9.50;94.40;;;;;;4993524;28;20034;-87
2020/12/17 03:25:46;;;;;;;8.80;7.03;;;9.50;94.40;;;;;;4991956;28;20030;-89
2020/12/17 03:28:12;;;;;;;10.35;6.82;;;9.60;94.40;;;;;;4992676;28;20030;-88
2020/12/17 03:30:37;;;;;;;9.95;7.05;;;9.50;94.30;;;;;;4985822;28;20037;-88
2020/12/17 03:33:03;;;;;;;9.77;7.18;;;9.60;94.40;;;;;;4990575;28;20085;-88
2020/12/17 03:35:28;;;;;;;9.60;6.63;;;9.50;94.30;;;;;;4992893;28;20033;-88
2020/12/17 03:37:57;;;;;;;13.15;7.18;;;9.60;94.30;;;;;;4989832;28;20176;-87
2020/12/17 03:40:24;;;;;;;7.97;6.00;;;9.60;94.30;;;;;;4974571;28;20031;-87
2020/12/17 03:42:50;;;;;;;8.45;6.28;;;9.60;94.30;;;;;;4978658;28;20038;-87
2020/12/17 03:45:16;;;;;;;10.07;6.28;;;9.60;94.30;;;;;;4980670;28;20039;-87
2020/12/17 03:47:41;;;;;;;9.80;6.32;;;9.60;94.30;;;;;;4976642;28;20077;-87
2020/12/17 03:50:07;;;;;;;8.35;5.90;;;9.60;94.30;;;;;;4975157;28;20027;-87
2020/12/17 03:52:32;;;;;;;9.10;6.60;;;9.60;94.40;;;;;;4992119;28;20034;-87
2020/12/17 03:54:57;;;;;;;12.77;8.15;;;9.50;94.40;;;;;;4979828;28;20091;-87
2020/12/17 03:57:23;;;;;;;10.02;7.20;;;9.50;94.40;;;;;;4977191;28;20026;-87
2020/12/17 03:59:48;;;;;;;9.13;6.88;;;9.50;94.50;;;;;;4991573;28;20018;-87
2020/12/17 04:02:14;;;;;;;9.82;6.97;;;9.50;94.50;;;;;;4988994;28;20043;-88
2020/12/17 04:04:39;;;;;;;11.02;6.65;;;9.50;94.50;;;;;;4987469;28;20023;-87
2020/12/17 04:07:05;;;;;;;8.70;6.63;;;9.50;94.50;;;;;;4991669;28;20023;-87
2020/12/17 04:09:30;;;;;;;14.90;7.65;;;9.50;94.50;;;;;;4989722;28;20551;-87
2020/12/17 04:11:56;;;;;;;10.77;7.18;;;9.50;94.60;;;;;;4992224;28;20029;-87
2020/12/17 04:14:21;;;;;;;10.10;6.82;;;9.50;94.60;;;;;;4996901;28;20019;-87
2020/12/17 04:16:47;;;;;;;8.70;6.55;;;9.50;94.60;;;;;;4995817;28;20040;-86
2020/12/17 04:19:12;;;;;;;10.00;6.95;;;9.50;94.70;;;;;;4995990;28;20471;-87
2020/12/17 04:21:38;;;;;;;11.52;6.38;;;9.50;94.70;;;;;;4986663;28;20054;-87
2020/12/17 04:24:04;;;;;;;9.38;5.85;;;9.50;94.80;;;;;;4989159;28;20078;-87
2020/12/17 04:26:29;;;;;;;11.23;7.35;;;9.50;94.90;;;;;;4992490;28;20034;-86
2020/12/17 04:28:55;;;;;;;9.57;6.75;;;9.50;94.90;;;;;;4987090;28;20392;-86
2020/12/17 04:31:20;;;;;;;10.15;6.25;;;9.50;94.90;;;;;;4988065;28;20033;-86
2020/12/17 04:33:46;;;;;;;11.95;6.80;;;9.50;95.00;;;;;;4981654;28;20038;-87
2020/12/17 04:36:11;;;;;;;10.40;6.60;;;9.60;95.10;;;;;;4993145;28;20026;-86
2020/12/17 04:38:37;;;;;;;7.90;6.10;;;9.60;95.10;;;;;;4997625;28;20117;-86
2020/12/17 04:41:06;;;;;;;11.95;6.40;;;9.60;95.20;;;;;;4995853;28;20030;-87
2020/12/17 04:43:32;;;;;;;9.35;6.75;;;9.60;95.20;;;;;;4992267;28;20042;-86
2020/12/17 04:45:58;;;;;;;9.32;6.20;;;9.60;95.20;;;;;;4994317;28;20039;-86
2020/12/17 04:48:25;;;;;;;12.18;6.47;;;9.60;95.20;;;;;;4995154;28;20036;-87
2020/12/17 04:50:51;;;;;;;9.73;6.55;;;9.60;95.30;;;;;;4997471;28;20026;-86
2020/12/17 04:53:18;;;;;;;11.63;6.43;;;9.70;95.30;;;;;;4989996;28;20541;-86
2020/12/17 04:55:45;;;;;;;11.55;7.28;;;9.70;95.30;;;;;;4996035;28;20037;-86
2020/12/17 04:58:11;;;;;;;9.43;7.40;;;9.70;95.30;;;;;;4986591;28;20498;-86
2020/12/17 05:00:41;;;;;;;12.20;7.03;;;9.70;95.30;;;;;;4976688;28;20023;-86
2020/12/17 05:03:12;;;;;;;10.55;7.22;;;9.70;95.40;;;;;;4982667;28;20049;-86
2020/12/17 05:05:38;;;;;;;11.20;7.10;;;9.70;95.40;;;;;;5007705;28;20023;-87
2020/12/17 05:08:04;;;;;;;8.68;6.55;;;9.80;95.50;;;;;;4982514;28;20038;-87
2020/12/17 05:10:29;;;;;;;10.20;6.85;;;9.80;95.50;;;;;;4990767;28;20023;-86
2020/12/17 05:12:55;;;;;;;8.85;6.57;;;9.70;95.50;;;;;;4994628;28;20076;-87
2020/12/17 05:15:25;;;;;;;9.73;7.13;;;9.80;95.50;;;;;;4992001;28;20117;-86
2020/12/17 05:17:51;;;;;;;13.85;7.28;;;9.80;95.80;;;;;;4994121;28;20390;-87
2020/12/17 05:20:16;;;;;;;9.02;6.57;;;9.80;95.50;;;;;;4984043;28;20023;-86
2020/12/17 05:22:46;;;;;;;11.88;7.65;;;9.80;95.60;;;;;;4986052;28;20372;-87
2020/12/17 05:25:14;;;;;;;12.48;7.97;;;9.80;95.60;;;;;;4993591;28;20486;-86
2020/12/17 05:27:41;;;;;;;12.27;7.72;;;9.80;95.60;;;;;;4983882;28;20026;-86
2020/12/17 05:30:07;;;;;;;10.77;7.00;;;9.80;95.60;;;;;;4982972;28;20026;-87
2020/12/17 05:32:33;;;;;;;10.63;6.97;;;9.80;95.70;;;;;;4996031;28;20085;-86
2020/12/17 05:35:01;;;;;;;12.68;8.27;;;9.80;95.70;;;;;;4991708;28;20042;-86
2020/12/17 05:37:30;;;;;;;9.98;7.85;;;9.80;95.70;;;;;;4993551;28;20027;-86
2020/12/17 05:40:01;;;;;;;9.65;7.57;;;9.80;95.70;;;;;;4985630;28;20038;-87
2020/12/17 05:42:27;;;;;;;11.63;8.13;;;9.80;95.70;;;;;;4989674;28;20046;-87
2020/12/17 05:44:54;;;;;;;12.27;8.18;;;9.80;95.70;;;;;;4987790;28;20118;-88
2020/12/17 05:47:19;;;;;;;9.88;8.43;;;9.80;95.80;;;;;;4994026;28;20089;-87
2020/12/17 05:49:45;;;;;;;11.90;8.98;;;9.80;95.80;;;;;;4995062;28;20061;-87
2020/12/17 05:52:19;;;;;;;10.55;8.82;;;9.80;95.80;;;;;;4989798;28;20049;-87
2020/12/17 05:54:57;;;;;;;13.45;8.27;;;9.80;95.80;;;;;;4989359;28;20432;-87
2020/12/17 05:57:23;;;;;;;10.55;8.85;;;9.80;95.80;;;;;;4993810;28;20459;-87
2020/12/17 06:00:04;;;;;;;12.70;9.35;;;9.70;95.80;;;;;;4994834;28;20026;-87
2020/12/17 06:02:32;;;;;;;13.52;10.60;;;9.70;95.80;;;;;;4991169;28;20142;-87
2020/12/17 06:05:09;;;;;;;12.68;10.30;;;9.70;95.90;;;;;;4984965;28;20030;-87
2020/12/17 06:07:40;;;;;;;10.68;8.93;;;9.70;95.90;;;;;;4995440;28;20032;-87
2020/12/17 06:10:07;;;;;;;12.32;9.70;;;9.70;95.90;;;;;;4991428;28;20035;-87
2020/12/17 06:12:36;;;;;;;15.52;11.15;;;9.70;95.90;;;;;;4991558;28;20076;-88
2020/12/17 06:15:04;;;;;;;16.13;11.35;;;9.70;95.90;;;;;;4991567;28;20030;-86
2020/12/17 06:17:37;;;;;;;13.23;11.55;;;9.70;96.00;;;;;;4994984;28;20023;-87
2020/12/17 06:20:04;;;;;;;16.30;12.43;;;9.70;96.00;;;;;;4983418;28;20073;-87
2020/12/17 06:22:31;;;;;;;13.93;11.63;;;9.70;96.10;;;;;;4983799;28;20045;-87
2020/12/17 06:24:57;;;;;;;14.73;12.95;;;9.70;96.10;;;;;;4977370;28;20034;-87
2020/12/17 06:27:31;;;;;;;17.58;13.25;;;9.60;96.10;;;;;;4995058;28;20026;-87
2020/12/17 06:30:03;;;;;;;16.67;12.45;;;9.70;96.10;;;;;;4989988;28;20027;-88
2020/12/17 06:32:29;;;;;;;17.08;13.70;;;9.70;96.10;;;;;;4983856;28;20390;-88
2020/12/17 06:34:58;;;;;;;15.98;13.27;;;9.70;96.10;;;;;;4988483;28;20034;-87
2020/12/17 06:37:24;;;;;;;16.35;14.32;;;9.70;96.10;;;;;;4993292;28;20026;-88
2020/12/17 06:39:51;;;;;;;17.85;13.65;;;9.70;96.10;;;;;;4994329;28;20029;-88
2020/12/17 06:42:39;;;;;;;16.77;13.35;;;9.70;96.10;;;;;;4994125;28;20038;-87
2020/12/17 06:45:26;;;;;;;20.02;14.45;;;9.70;96.10;;;;;;4990466;28;20053;-86
2020/12/17 06:47:52;;;;;;;18.58;15.05;;;9.80;96.10;;;;;;4994036;28;20065;-87
2020/12/17 06:50:27;;;;;;;16.45;13.90;;;9.70;96.10;;;;;;4994314;28;20042;-87
2020/12/17 06:53:10;;;;;;;16.70;14.90;;;9.70;96.10;;;;;;4976218;28;20022;-87
2020/12/17 06:55:40;;;;;;;17.33;14.25;;;9.70;96.10;;;;;;4988713;28;20451;-86
2020/12/17 06:58:06;;;;;;;15.98;13.80;;;9.70;96.10;;;;;;4991778;28;20449;-87
2020/12/17 07:00:32;;;;;;;18.70;14.93;;;9.70;96.00;;;;;;4991040;28;20026;-87
2020/12/17 07:02:57;;;;;;;17.95;14.20;;;9.70;96.00;;;;;;5005067;28;20068;-88
2020/12/17 07:05:33;;;;;;;17.63;15.73;;;9.70;96.00;;;;;;4988010;28;20077;-88
2020/12/17 07:07:59;;;;;;;18.48;16.50;;;9.70;96.00;;;;;;5002061;28;20061;-89
2020/12/17 07:10:27;;;;;;;21.58;15.55;;;9.70;96.00;;;;;;5002254;28;20113;-89
2020/12/17 07:12:53;;;;;;;18.85;16.42;;;9.70;96.00;;;;;;4983864;28;20030;-88
2020/12/17 07:15:28;;;;;;;18.67;16.65;;;9.70;95.90;;;;;;4982793;28;20053;-88
2020/12/17 07:18:21;;;;;;;20.42;16.88;;;9.70;95.90;;;;;;4974924;28;20098;-88
2020/12/17 07:21:00;;;;;;;19.75;17.10;;;9.70;95.90;;;;;;4984229;28;20033;-89
2020/12/17 07:23:31;;;;;;;19.40;16.50;;;9.60;95.90;;;;;;4994848;28;20073;-89
2020/12/17 07:25:57;;;;;;;20.63;17.25;;;9.60;95.90;;;;;;4995210;28;20499;-87
2020/12/17 07:28:26;;;;;;;20.73;17.05;;;9.60;95.90;;;;;;5007119;28;20058;-89
2020/12/17 07:30:53;;;;;;;21.13;17.20;;;9.60;95.90;;;;;;4996190;28;20026;-88
2020/12/17 07:33:37;;;;;;;19.85;17.75;;;9.60;95.90;;;;;;4979311;28;20030;-88
2020/12/17 07:36:04;;;;;;;20.77;17.95;;;9.60;95.90;;;;;;4994528;28;20039;-89
2020/12/17 07:38:30;;;;;;;21.00;17.65;;;9.60;95.90;;;;;;4992323;28;20387;-88
2020/12/17 07:40:55;;;;;;;20.52;17.50;;;9.50;95.90;;;;;;4984368;28;20081;-88
2020/12/17 07:43:24;;;;;;;21.67;17.83;;;9.50;95.90;;;;;;4973941;28;20057;-88
2020/12/17 07:45:53;;;;;;;21.35;16.95;;;9.60;95.90;;;;;;4984985;28;20440;-88
2020/12/17 07:48:38;;;;;;;21.77;16.38;;;9.60;95.90;;;;;;4992574;28;20033;-88
2020/12/17 07:51:30;;;;;;;17.63;15.52;;;9.60;95.90;;;;;;4991394;28;20149;-88
2020/12/17 07:53:57;;;;;;;19.27;16.58;;;9.60;95.90;;;;;;4993234;28;20030;-88
2020/12/17 07:56:23;;;;;;;21.33;16.40;;;9.50;95.90;;;;;;4984820;28;20031;-89
2020/12/17 07:58:49;;;;;;;19.95;16.77;;;9.50;95.80;;;;;;4982015;28;20029;-89
2020/12/17 08:01:15;;;;;;;18.35;15.73;;;9.60;95.80;;;;;;4982762;28;20108;-89
2020/12/17 08:03:45;;;;;;;19.15;15.95;;;9.60;95.80;;;;;;4981635;28;20046;-88
2020/12/17 08:06:12;;;;;;;19.23;15.52;;;9.60;95.90;;;;;;4992007;28;20474;-88
2020/12/17 08:08:39;;;;;;;18.90;15.63;;;9.50;95.80;;;;;;4990494;28;20479;-89
2020/12/17 08:11:06;;;;;;;17.83;15.93;;;9.50;95.80;;;;;;4989390;28;20027;-88
2020/12/17 08:13:31;;;;;;;18.98;15.02;;;9.50;95.80;;;;;;4992817;28;20038;-88
2020/12/17 08:15:59;;;;;;;16.60;13.75;;;9.50;95.80;;;;;;4986201;28;20554;-88
2020/12/17 08:18:30;;;;;;;21.30;15.18;;;9.50;95.80;;;;;;4974169;28;20027;-89
2020/12/17 08:21:11;;;;;;;15.82;13.43;;;9.50;95.80;;;;;;4982780;28;20505;-88
2020/12/17 08:23:41;;;;;;;16.50;13.60;;;9.60;95.80;;;;;;4995963;28;20372;-89
2020/12/17 08:26:10;;;;;;;16.27;13.52;;;9.60;95.80;;;;;;4991335;28;20066;-89
2020/12/17 08:28:38;;;;;;;14.25;12.25;;;9.60;95.80;;;;;;4992320;28;20034;-88
2020/12/17 08:31:05;;;;;;;14.10;11.45;;;9.60;95.70;;;;;;4992005;28;20029;-89
2020/12/17 08:33:30;;;;;;;16.25;12.45;;;9.70;95.70;;;;;;4973541;28;20033;-89
2020/12/17 08:36:04;;;;;;;18.42;13.30;;;9.70;95.60;;;;;;4990592;28;20483;-88
2020/12/17 08:38:29;;;;;;;18.30;12.63;;;9.70;95.60;;;;;;4977598;28;20065;-89
2020/12/17 08:40:57;;;;;;;14.80;11.85;;;9.70;95.50;;;;;;4981703;28;20108;-89
2020/12/17 08:43:26;;;;;;;16.90;12.55;;;9.70;95.50;;;;;;4992692;28;20046;-88
2020/12/17 08:45:53;;;;;;;14.38;11.73;;;9.70;95.40;;;;;;4978067;28;20035;-87
2020/12/17 08:48:19;;;;;;;13.18;11.07;;;9.70;95.40;;;;;;4991881;28;20180;-88
2020/12/17 08:50:45;;;;;;;14.68;11.23;;;9.80;95.30;;;;;;4996308;28;20493;-87
2020/12/17 08:53:25;;;;;;;14.27;10.57;;;9.80;95.30;;;;;;4996697;28;20116;-87
2020/12/17 08:56:04;;;;;;;13.30;10.40;;;9.80;95.20;;;;;;4988417;28;20487;-87
2020/12/17 08:58:30;;;;;;;11.00;9.18;;;9.90;95.10;;;;;;4978005;28;20030;-86
2020/12/17 09:00:56;;;;;;;13.45;9.35;;;9.90;95.00;;;;;;4985370;28;20142;-87
2020/12/17 09:03:22;;;;;;;12.10;9.52;;;9.90;95.00;;;;;;4995891;28;20041;-88
2020/12/17 09:06:04;;;;;;;12.55;8.68;;;9.90;94.90;;;;;;4997615;28;20037;-88
2020/12/17 09:08:31;;;;;;;13.77;9.50;;;10.00;94.80;;;;;;4996399;28;20030;-88
2020/12/17 09:10:56;;;;;;;10.30;8.55;;;9.90;94.80;;;;;;4984367;28;20034;-88
2020/12/17 09:13:22;;;;;;;10.82;7.90;;;9.90;94.70;;;;;;4976584;28;20031;-88
2020/12/17 09:15:59;;;;;;;9.32;7.45;;;9.90;94.70;;;;;;4976478;28;20454;-87
2020/12/17 09:18:26;;;;;;;9.73;6.57;;;10.00;94.70;;;;;;4988731;28;20033;-88
2020/12/17 09:21:11;;;;;;;10.18;7.22;;;10.00;94.60;;;;;;4995907;28;20033;-87
2020/12/17 09:23:38;;;;;;;8.52;6.80;;;9.90;94.50;;;;;;4993477;28;20064;-87
2020/12/17 09:26:12;;;;;;;9.63;7.50;;;9.90;94.50;;;;;;4976542;28;20027;-87
2020/12/17 09:28:37;;;;;;;11.07;6.97;;;10.00;94.40;;;;;;4986445;28;20442;-87
2020/12/17 09:31:20;;;;;;;9.07;6.60;;;10.00;94.40;;;;;;4994980;28;20030;-89
2020/12/17 09:33:46;;;;;;;8.00;6.20;;;10.00;94.30;;;;;;4994329;28;20030;-88
2020/12/17 09:36:16;;;;;;;9.30;5.63;;;10.00;94.20;;;;;;4995914;28;20034;-88
2020/12/17 09:38:42;;;;;;;7.40;5.28;;;9.90;94.00;;;;;;4995559;28;20443;-87
2020/12/17 09:41:08;;;;;;;7.40;5.55;;;9.90;94.00;;;;;;4977306;28;20085;-88
2020/12/17 09:43:33;;;;;;;7.40;5.75;;;9.80;94.00;;;;;;4975541;28;20102;-87
2020/12/17 09:45:59;;;;;;;9.20;5.60;;;9.80;94.10;;;;;;4993112;28;20057;-88
2020/12/17 09:48:27;;;;;;;7.88;6.13;;;9.80;94.10;;;;;;4994787;28;20479;-89
2020/12/17 09:51:06;;;;;;;8.60;5.40;;;9.80;94.20;;;;;;4996378;28;20050;-88
2020/12/17 09:53:37;;;;;;;8.23;5.07;;;9.90;94.20;;;;;;4995347;28;20022;-89
2020/12/17 09:56:07;;;;;;;6.10;4.78;;;10.00;94.10;;;;;;4995577;28;20053;-88
2020/12/17 09:58:33;;;;;;;10.98;5.50;;;10.10;94.00;;;;;;4998709;28;20022;-88
2020/12/17 10:00:58;;;;;;;7.53;4.80;;;10.20;93.60;;;;;;5014831;28;20094;-89
2020/12/17 10:03:24;;;;;;;7.13;4.55;;;10.20;93.40;;;;;;5002580;28;20038;-89
2020/12/17 10:05:49;;;;;;;6.25;4.15;;;10.20;93.60;;;;;;4992833;28;20059;-88
2020/12/17 10:08:16;;;;;;;8.10;4.30;;;10.20;93.30;;;;;;4991583;28;20038;-89
2020/12/17 10:10:41;;;;;;;6.05;4.13;;;10.20;93.30;;;;;;4987968;28;20121;-89
2020/12/17 10:13:09;;;;;;;7.57;3.92;;;10.20;93.10;;;;;;4975408;28;20113;-89
2020/12/17 10:15:35;;;;;;;10.40;4.18;;;10.30;93.00;;;;;;4975909;28;20030;-87
2020/12/17 10:18:01;;;;;;;6.63;3.20;;;10.30;93.00;;;;;;4990386;28;20031;-86
2020/12/17 10:20:27;;;;;;;11.05;4.38;;;10.30;93.00;;;;;;4988324;28;20041;-88
2020/12/17 10:22:52;;;;;;;6.50;3.72;;;10.30;92.70;;;;;;4994822;28;20030;-89
2020/12/17 10:25:21;;;;;;;10.27;3.92;;;10.30;92.70;;;;;;4983220;28;20483;-88
2020/12/17 10:27:46;;;;;;;7.72;3.83;;;10.30;92.80;;;;;;4975377;28;20041;-87
2020/12/17 10:30:12;;;;;;;8.05;3.35;;;10.30;92.60;;;;;;4990801;28;20027;-86
2020/12/17 10:32:38;;;;;;;9.48;4.15;;;10.30;92.50;;;;;;4994176;28;20035;-88
2020/12/17 10:35:05;;;;;;;12.30;4.07;;;10.40;92.40;;;;;;4998165;28;20161;-89
2020/12/17 10:37:31;;;;;;;14.93;3.85;;;10.40;92.30;;;;;;4994824;28;20097;-88
2020/12/17 10:39:56;;;;;;;11.15;4.05;;;10.40;92.20;;;;;;4976998;28;20047;-88
2020/12/17 10:42:23;;;;;;;13.38;4.03;;;10.40;92.10;;;;;;4975167;28;20041;-90
2020/12/17 10:44:49;;;;;;;10.25;3.75;;;10.40;92.10;;;;;;4982060;28;20133;-88
2020/12/17 10:47:16;;;;;;;11.13;3.88;;;10.40;92.00;;;;;;4994171;28;20482;-88
2020/12/17 10:49:42;;;;;;;10.05;3.63;;;10.40;91.90;;;;;;4993534;28;20122;-88
2020/12/17 10:52:09;;;;;;;8.90;4.65;;;10.40;91.90;;;;;;4994483;28;20073;-88
2020/12/17 10:54:35;;;;;;;8.13;4.60;;;10.50;91.90;;;;;;4994534;28;20026;-88
2020/12/17 10:57:00;;;;;;;6.72;4.07;;;10.40;92.20;;;;;;4993552;28;20045;-88
2020/12/17 10:59:26;;;;;;;9.07;4.05;;;10.50;92.10;;;;;;4991976;28;20048;-88
2020/12/17 11:01:55;;;;;;;8.00;3.65;;;10.50;91.90;;;;;;4993885;28;20026;-88
2020/12/17 11:04:21;;;;;;;13.38;4.28;;;10.50;91.90;;;;;;4993547;28;20038;-88
2020/12/17 11:06:46;;;;;;;8.57;3.47;;;10.40;91.80;;;;;;4984203;28;20439;-88
2020/12/17 11:09:12;;;;;;;11.55;4.75;;;10.50;91.80;;;;;;4994438;28;20038;-88
2020/12/17 11:11:38;;;;;;;10.45;4.35;;;10.60;91.80;;;;;;4989830;28;20030;-88
2020/12/17 11:14:03;;;;;;;11.20;3.90;;;10.60;91.70;;;;;;4982004;28;20023;-89
2020/12/17 11:16:29;;;;;;;7.43;4.75;;;10.60;91.60;;;;;;4993282;28;20395;-89
2020/12/17 11:18:54;;;;;;;14.63;5.28;;;10.60;91.50;;;;;;4990962;28;20045;-88
2020/12/17 11:21:21;;;;;;;11.77;4.65;;;10.60;91.50;;;;;;4993525;28;20557;-89
2020/12/17 11:23:46;;;;;;;10.95;4.15;;;10.60;91.50;;;;;;4993708;28;20030;-88
2020/12/17 11:26:12;;;;;;;6.28;4.10;;;10.50;91.40;;;;;;4990565;28;20026;-89
2020/12/17 11:28:37;;;;;;;11.77;5.05;;;10.50;91.40;;;;;;4994375;28;20030;-88
2020/12/17 11:31:03;;;;;;;10.55;3.88;;;10.60;91.60;;;;;;4993851;28;20077;-88
2020/12/17 11:33:29;;;;;;;6.97;4.18;;;10.70;91.60;;;;;;4994424;28;20026;-88
2020/12/17 11:35:55;;;;;;;11.73;3.97;;;10.80;91.50;;;;;;4991295;28;20030;-88
2020/12/17 11:38:21;;;;;;;9.65;3.90;;;10.80;91.40;;;;;;4974375;28;20034;-88
2020/12/17 11:40:46;;;;;;;12.20;4.32;;;10.80;91.00;;;;;;4975069;28;20061;-88
2020/12/17 11:43:12;;;;;;;6.88;3.38;;;10.80;91.10;;;;;;4979424;28;20054;-88
2020/12/17 11:45:37;;;;;;;6.88;3.47;;;10.80;91.20;;;;;;5006892;28;20050;-89
2020/12/17 11:48:03;;;;;;;7.72;4.07;;;10.80;91.20;;;;;;4984863;28;20031;-89
2020/12/17 11:50:29;;;;;;;6.53;3.08;;;10.80;91.10;;;;;;4978801;28;20031;-89
2020/12/17 11:52:55;;;;;;;13.48;4.15;;;10.80;91.20;;;;;;4985814;28;20033;-87
2020/12/17 11:55:20;;;;;;;7.85;3.67;;;10.80;91.10;;;;;;4985142;28;20018;-88
2020/12/17 11:57:49;;;;;;;8.77;3.67;;;10.80;91.00;;;;;;4981913;28;20035;-87
2020/12/17 12:00:15;;;;;;;11.90;3.72;;;10.90;91.20;;;;;;4980972;28;20423;-87
2020/12/17 12:02:44;;;;;;;7.57;3.38;;;10.90;91.10;;;;;;4984266;28;20101;-88
2020/12/17 12:05:10;;;;;;;13.23;3.03;;;11.00;90.90;;;;;;4981374;28;20026;-88
2020/12/17 12:07:36;;;;;;;8.05;3.20;;;11.00;90.50;;;;;;4978857;28;20038;-87
2020/12/17 12:10:07;;;;;;;11.88;3.40;;;11.00;90.60;;;;;;4981888;28;20077;-87
2020/12/17 12:12:32;;;;;;;9.98;3.10;;;10.90;90.50;;;;;;4982276;28;20023;-88
2020/12/17 12:14:58;;;;;;;12.13;3.30;;;10.90;90.40;;;;;;4978667;28;20054;-87
2020/12/17 12:17:23;;;;;;;11.65;3.22;;;11.00;90.50;;;;;;4977561;28;20031;-87
2020/12/17 12:19:49;;;;;;;13.07;3.17;;;11.00;90.40;;;;;;4986397;28;20093;-88
2020/12/17 12:22:14;;;;;;;8.82;2.90;;;10.90;90.20;;;;;;4981256;28;20038;-87
2020/12/17 12:24:40;;;;;;;11.63;4.18;;;10.90;90.10;;;;;;4986753;28;20022;-87
2020/12/17 12:27:06;;;;;;;9.57;2.80;;;11.00;90.30;;;;;;4996708;28;20088;-86
2020/12/17 12:29:32;;;;;;;14.55;3.13;;;11.00;90.20;;;;;;4996398;28;20027;-88
2020/12/17 12:31:57;;;;;;;8.90;2.67;;;11.00;90.10;;;;;;4985984;28;20084;-88
2020/12/17 12:34:23;;;;;;;11.63;2.60;;;11.00;90.00;;;;;;4995870;28;20030;-87
2020/12/17 12:36:54;;;;;;;9.10;2.20;;;11.00;89.60;;;;;;4996692;28;20483;-87
2020/12/17 12:39:20;;;;;;;9.30;2.50;;;10.90;89.60;;;;;;4995712;28;20041;-87
2020/12/17 12:41:51;;;;;;;10.52;2.42;;;10.90;89.70;;;;;;4996714;28;20076;-87
2020/12/17 12:44:17;;;;;;;10.25;2.45;;;11.00;89.70;;;;;;4996240;28;20046;-87
2020/12/17 12:46:44;;;;;;;7.70;1.77;;;11.00;89.80;;;;;;4977310;28;20027;-87